Time;durP1;ratioP1;P1;durP2;ratioP2;P2;SDS_P1;SDS_P2;PMS_P1;PMS_P2;Temp;Humidity;BMP_temperature;BMP_pressure;BME280_temperature;BME280_humidity;BME280_pressure;Samples;Min_cycle;Max_cycle;Signal;HPM_P1;HPM_P2
2021/08/19 00:02:11;;;;;;;5.20;5.00;;;;;;;16.36;91.21;100968.91;4413161;32;20189;-68
2021/08/19 00:04:36;;;;;;;5.30;5.07;;;;;;;16.36;91.30;100960.97;4425664;32;20071;-68
2021/08/19 00:07:02;;;;;;;5.35;5.05;;;;;;;16.37;92.15;100954.69;4410145;32;20487;-68
2021/08/19 00:09:27;;;;;;;5.10;4.90;;;;;;;16.40;91.59;100962.44;4425906;32;20072;-68
2021/08/19 00:11:52;;;;;;;7.32;7.03;;;;;;;16.40;91.00;100957.16;4406533;32;20071;-68
2021/08/19 00:14:18;;;;;;;5.20;5.00;;;;;;;16.03;90.34;100892.75;4421756;32;20076;-68
2021/08/19 00:16:43;;;;;;;6.55;6.25;;;;;;;16.43;91.09;100956.06;4424445;32;20570;-68
2021/08/19 00:19:08;;;;;;;5.50;5.30;;;;;;;16.44;90.60;100957.78;4410843;32;20188;-70
2021/08/19 00:21:34;;;;;;;5.05;4.85;;;;;;;16.45;90.96;100957.62;4412525;32;20075;-67
2021/08/19 00:23:59;;;;;;;5.30;5.10;;;;;;;16.40;90.06;100951.84;4412921;32;20418;-68
2021/08/19 00:26:25;;;;;;;5.10;4.72;;;;;;;16.25;90.40;100932.59;4405484;32;20090;-68
2021/08/19 00:28:50;;;;;;;5.32;5.03;;;;;;;15.29;89.71;100771.81;4415995;32;20436;-68
2021/08/19 00:31:16;;;;;;;5.97;5.65;;;;;;;16.40;90.74;100948.31;4406151;32;20110;-68
2021/08/19 00:33:42;;;;;;;6.18;5.87;;;;;;;16.46;90.22;100953.22;4427325;32;20167;-68
2021/08/19 00:36:08;;;;;;;5.07;4.87;;;;;;;16.45;90.83;100954.97;4408102;32;20600;-67
2021/08/19 00:38:33;;;;;;;5.30;5.10;;;;;;;16.46;90.56;100956.69;4411263;32;20072;-68
2021/08/19 00:40:59;;;;;;;5.35;5.15;;;;;;;16.49;90.53;100958.25;4406359;32;20068;-68
2021/08/19 00:43:24;;;;;;;4.90;4.70;;;;;;;16.45;90.18;100951.50;4419318;32;20383;-67
2021/08/19 00:45:50;;;;;;;5.62;5.32;;;;;;;16.52;89.98;100952.75;4420933;32;20490;-68
2021/08/19 00:48:15;;;;;;;5.30;5.00;;;;;;;16.55;89.66;100953.34;4409976;32;20075;-67
2021/08/19 00:50:41;;;;;;;6.03;5.72;;;;;;;16.58;90.49;100948.78;4411921;32;20434;-68
2021/08/19 00:53:07;;;;;;;5.18;4.97;;;;;;;16.58;89.64;100954.94;4413547;32;20140;-68
2021/08/19 00:55:32;;;;;;;5.20;5.00;;;;;;;16.57;89.50;100949.75;4412463;32;20076;-67
2021/08/19 00:57:57;;;;;;;5.70;5.40;;;;;;;16.55;89.89;100945.41;4411006;32;20596;-68
2021/08/19 01:00:23;;;;;;;5.15;4.85;;;;;;;15.47;89.39;100764.38;4407155;32;20080;-68
2021/08/19 01:02:50;;;;;;;7.22;6.82;;;;;;;16.58;89.99;100957.59;4412581;32;20506;-64
2021/08/19 01:05:22;;;;;;;5.55;5.30;;;;;;;16.58;89.62;100949.66;4406442;32;20083;-68
2021/08/19 01:07:48;;;;;;;5.72;5.43;;;;;;;16.59;89.19;100943.38;4447351;26;20736;-70
2021/08/19 01:10:13;;;;;;;5.40;5.10;;;;;;;16.60;89.44;100944.22;4444594;32;20095;-69
2021/08/19 01:12:43;;;;;;;5.32;5.12;;;;;;;16.58;89.76;100946.13;4433048;32;20071;-69
2021/08/19 01:15:10;;;;;;;4.93;4.72;;;;;;;16.30;89.98;100895.22;4460448;32;20063;-69
2021/08/19 01:17:35;;;;;;;5.57;5.28;;;;;;;16.62;89.78;100945.81;4441947;31;20231;-69
2021/08/19 01:20:00;;;;;;;6.05;5.35;;;;;;;16.62;89.31;100944.94;4440222;31;20363;-71
2021/08/19 01:22:26;;;;;;;5.07;4.87;;;;;;;16.64;89.53;100941.25;4470170;31;20060;-69
2021/08/19 01:24:52;;;;;;;5.10;4.90;;;;;;;16.59;88.77;100931.94;4433102;32;20136;-69
2021/08/19 01:27:18;;;;;;;4.90;4.70;;;;;;;16.63;89.80;100939.53;4440677;32;20091;-69
2021/08/19 01:29:44;;;;;;;5.15;4.95;;;;;;;16.61;90.09;100936.16;4456718;31;20087;-68
2021/08/19 01:32:10;;;;;;;5.37;5.18;;;;;;;16.60;89.07;100938.91;4443199;31;20079;-69
2021/08/19 01:34:36;;;;;;;5.22;4.95;;;;;;;16.62;89.16;100934.34;4474063;31;20491;-69
2021/08/19 01:37:01;;;;;;;5.25;5.05;;;;;;;16.63;89.52;100933.41;4476160;31;20686;-70
2021/08/19 01:39:27;;;;;;;5.20;5.00;;;;;;;16.55;88.68;100931.31;4450256;31;20098;-70
2021/08/19 01:41:52;;;;;;;5.60;5.22;;;;;;;16.64;89.36;100943.06;4449601;31;20313;-70
2021/08/19 01:44:18;;;;;;;5.18;4.95;;;;;;;16.63;88.49;100934.25;4449050;32;20078;-70
2021/08/19 01:46:43;;;;;;;5.18;4.97;;;;;;;16.65;89.31;100940.28;4425234;32;20084;-69
2021/08/19 01:49:08;;;;;;;4.78;4.55;;;;;;;16.66;89.17;100933.19;4448346;32;20072;-69
2021/08/19 01:51:34;;;;;;;5.45;5.18;;;;;;;16.63;89.12;100928.09;4465680;31;20078;-69
2021/08/19 01:53:59;;;;;;;5.70;5.20;;;;;;;16.64;89.03;100935.94;4447061;32;20051;-69
2021/08/19 01:56:25;;;;;;;5.35;5.05;;;;;;;16.53;88.98;100920.81;4445190;32;20191;-69
2021/08/19 01:58:50;;;;;;;5.00;4.80;;;;;;;16.59;89.11;100924.84;4430035;32;20162;-69
2021/08/19 02:01:23;;;;;;;5.78;5.43;;;;;;;16.50;89.39;100905.16;4446598;32;20083;-69
2021/08/19 02:03:48;;;;;;;5.22;4.93;;;;;;;16.67;88.81;100927.75;4443006;31;20091;-69
2021/08/19 02:06:14;;;;;;;5.53;5.22;;;;;;;16.64;88.51;100929.81;4462328;31;20075;-69
2021/08/19 02:08:39;;;;;;;5.28;5.05;;;;;;;16.65;88.34;100934.12;4447878;31;20693;-68
2021/08/19 02:11:05;;;;;;;5.03;4.82;;;;;;;16.63;88.66;100934.25;4460889;32;20066;-69
2021/08/19 02:13:30;;;;;;;5.45;5.15;;;;;;;16.64;88.45;100929.81;4460715;31;20872;-69
2021/08/19 02:15:56;;;;;;;5.72;5.43;;;;;;;16.63;88.94;100923.66;4459450;32;20086;-69
2021/08/19 02:18:21;;;;;;;5.20;5.00;;;;;;;16.63;88.00;100928.94;4443996;31;20068;-70
2021/08/19 02:20:47;;;;;;;5.70;5.30;;;;;;;16.62;88.82;100935.22;4459830;32;20071;-69
2021/08/19 02:23:12;;;;;;;5.03;4.82;;;;;;;16.63;88.62;100931.59;4445281;31;20082;-69
2021/08/19 02:25:37;;;;;;;4.97;4.78;;;;;;;16.63;88.90;100936.06;4438959;31;20091;-69
2021/08/19 02:28:03;;;;;;;5.68;5.37;;;;;;;16.66;88.01;100930.53;4445229;31;20067;-69
2021/08/19 02:30:28;;;;;;;5.12;4.93;;;;;;;15.63;87.76;100765.91;4463792;31;20081;-70
2021/08/19 02:32:55;;;;;;;5.30;5.10;;;;;;;16.67;88.25;100929.56;4443579;31;20576;-70
2021/08/19 02:35:24;;;;;;;5.12;4.93;;;;;;;16.67;87.52;100933.06;4447356;32;20072;-69
2021/08/19 02:37:50;;;;;;;5.20;5.00;;;;;;;16.66;87.88;100927.91;4447521;32;20076;-70
2021/08/19 02:40:15;;;;;;;5.25;5.03;;;;;;;16.64;88.70;100929.81;4449664;31;20071;-70
2021/08/19 02:42:41;;;;;;;5.05;4.85;;;;;;;16.22;88.04;100855.19;4451347;31;20094;-70
2021/08/19 02:45:06;;;;;;;5.00;4.80;;;;;;;16.65;87.90;100928.84;4449033;32;20068;-70
2021/08/19 02:47:32;;;;;;;5.25;5.05;;;;;;;16.64;88.02;100927.16;4439011;32;20549;-70
2021/08/19 02:49:57;;;;;;;5.18;4.97;;;;;;;16.63;88.58;100925.47;4448802;32;20060;-69
2021/08/19 02:52:24;;;;;;;5.55;5.25;;;;;;;16.64;88.21;100916.56;4448621;32;20113;-70
2021/08/19 02:54:50;;;;;;;5.20;5.00;;;;;;;16.65;87.24;100916.44;4452034;31;20327;-70
2021/08/19 02:57:15;;;;;;;5.05;4.85;;;;;;;16.41;87.84;100892.59;4441545;32;20086;-70
2021/08/19 02:59:40;;;;;;;5.45;5.18;;;;;;;16.63;87.93;100923.66;4441414;31;20075;-70
2021/08/19 03:02:06;;;;;;;5.20;5.00;;;;;;;16.64;87.97;100920.06;4455308;31;20130;-70
2021/08/19 03:04:31;;;;;;;4.87;4.68;;;;;;;16.37;87.22;100877.87;4450701;31;20075;-70
2021/08/19 03:06:57;;;;;;;5.50;5.20;;;;;;;16.60;87.50;100920.38;4450803;32;20086;-69
2021/08/19 03:09:22;;;;;;;4.80;4.60;;;;;;;16.61;88.14;100919.44;4444404;32;20129;-69
2021/08/19 03:11:47;;;;;;;4.82;4.62;;;;;;;16.61;88.27;100914.97;4436872;32;20859;-69
2021/08/19 03:14:13;;;;;;;5.10;4.87;;;;;;;16.57;88.11;100917.97;4442870;32;20068;-69
2021/08/19 03:16:38;;;;;;;5.57;5.35;;;;;;;16.53;88.24;100912.03;4442829;32;20121;-69
2021/08/19 03:19:03;;;;;;;4.85;4.65;;;;;;;16.51;88.87;100916.59;4427892;32;20204;-69
2021/08/19 03:21:29;;;;;;;5.00;4.80;;;;;;;16.47;89.06;100917.78;4445543;32;20131;-70
2021/08/19 03:23:55;;;;;;;5.40;5.05;;;;;;;16.48;89.63;100908.91;4443319;32;20060;-69
2021/08/19 03:26:20;;;;;;;5.00;4.80;;;;;;;16.46;88.96;100919.59;4455393;31;20071;-70
2021/08/19 03:28:45;;;;;;;4.90;4.70;;;;;;;16.44;90.03;100923.34;4449064;31;20074;-70
2021/08/19 03:31:11;;;;;;;5.03;4.82;;;;;;;16.43;89.90;100917.16;4450554;32;20060;-70
2021/08/19 03:33:39;;;;;;;6.05;5.75;;;;;;;16.39;90.06;100913.06;4435438;32;20847;-69
2021/08/19 03:36:05;;;;;;;5.32;4.95;;;;;;;16.43;89.68;100919.81;4447373;32;20084;-70
2021/08/19 03:38:30;;;;;;;5.00;4.80;;;;;;;16.40;90.22;100916.53;4437151;31;20081;-70
2021/08/19 03:40:56;;;;;;;5.25;4.97;;;;;;;16.40;90.19;100906.81;4432888;32;20671;-69
2021/08/19 03:43:21;;;;;;;5.70;5.40;;;;;;;16.39;89.45;100918.34;4444664;31;20517;-70
2021/08/19 03:45:49;;;;;;;4.93;4.70;;;;;;;16.42;89.54;100915.50;4452071;32;20238;-70
2021/08/19 03:48:16;;;;;;;5.00;4.80;;;;;;;16.41;90.01;100916.44;4450330;32;20086;-70
2021/08/19 03:50:42;;;;;;;4.80;4.60;;;;;;;16.38;89.87;100910.50;4450335;31;20083;-69
2021/08/19 03:53:07;;;;;;;4.82;4.62;;;;;;;16.42;89.11;100909.34;4452791;31;20675;-70
2021/08/19 03:55:33;;;;;;;4.97;4.78;;;;;;;16.42;89.71;100917.31;4446210;32;20087;-69
2021/08/19 03:57:58;;;;;;;4.90;4.70;;;;;;;16.45;88.69;100917.06;4445494;32;20068;-70
2021/08/19 04:00:23;;;;;;;4.97;4.78;;;;;;;16.46;89.01;100916.13;4437398;32;20200;-69
2021/08/19 04:02:49;;;;;;;4.70;4.50;;;;;;;16.48;88.66;100912.38;4449428;32;20072;-69
2021/08/19 04:05:14;;;;;;;5.05;4.85;;;;;;;16.32;88.57;100885.34;4432740;32;20064;-70
2021/08/19 04:07:40;;;;;;;5.03;4.82;;;;;;;16.46;88.87;100908.16;4447120;32;20082;-70
2021/08/19 04:10:06;;;;;;;4.70;4.50;;;;;;;16.29;88.15;100881.09;4449909;31;20589;-70
2021/08/19 04:12:31;;;;;;;5.03;4.80;;;;;;;16.27;88.82;100883.00;4469998;31;20063;-70
2021/08/19 04:14:57;;;;;;;5.55;5.25;;;;;;;16.45;88.55;100903.81;4445493;32;20094;-70
2021/08/19 04:17:22;;;;;;;4.93;4.72;;;;;;;16.45;87.82;100909.94;4447531;31;20147;-70
2021/08/19 04:19:47;;;;;;;5.03;4.82;;;;;;;16.45;87.78;100912.59;4439462;31;20078;-70
2021/08/19 04:22:13;;;;;;;4.70;4.50;;;;;;;16.45;87.99;100906.47;4470807;31;20075;-70
2021/08/19 04:24:38;;;;;;;4.72;4.53;;;;;;;16.45;87.88;100909.13;4449892;31;20168;-69
2021/08/19 04:27:04;;;;;;;5.37;5.12;;;;;;;16.46;87.47;100909.00;4443437;31;20147;-69
2021/08/19 04:29:33;;;;;;;5.18;4.90;;;;;;;16.45;87.91;100906.47;4461874;31;20213;-69
2021/08/19 04:31:59;;;;;;;5.30;5.00;;;;;;;16.36;88.49;100894.75;4446868;32;20088;-69
2021/08/19 04:34:25;;;;;;;5.05;4.85;;;;;;;16.45;87.50;100909.94;4443341;31;20092;-68
2021/08/19 04:36:50;;;;;;;5.00;4.80;;;;;;;16.42;88.03;100914.66;4446840;31;20127;-69
2021/08/19 04:39:15;;;;;;;5.10;4.90;;;;;;;16.42;87.51;100912.00;4472323;31;20581;-69
2021/08/19 04:41:42;;;;;;;4.85;4.65;;;;;;;16.43;88.22;100913.69;4467310;31;20114;-69
2021/08/19 04:44:07;;;;;;;4.68;4.47;;;;;;;16.47;88.09;100907.19;4459991;31;20067;-70
2021/08/19 04:46:32;;;;;;;4.87;4.68;;;;;;;16.43;87.71;100908.37;4468862;31;20278;-70
2021/08/19 04:48:59;;;;;;;5.00;4.80;;;;;;;16.45;87.89;100911.75;4455470;31;20485;-70
2021/08/19 04:51:24;;;;;;;5.00;4.80;;;;;;;16.45;87.12;100907.31;4458146;31;20903;-70
2021/08/19 04:53:50;;;;;;;5.00;4.80;;;;;;;16.38;87.65;100906.06;4453708;31;20133;-70
2021/08/19 04:56:15;;;;;;;5.00;4.80;;;;;;;16.41;87.08;100910.31;4448304;31;20573;-69
2021/08/19 04:58:41;;;;;;;4.75;4.55;;;;;;;16.42;87.11;100909.34;4448190;31;20086;-70
2021/08/19 05:01:06;;;;;;;4.72;4.53;;;;;;;16.45;87.06;100917.06;4449902;31;20799;-69
2021/08/19 05:03:31;;;;;;;5.10;4.90;;;;;;;16.46;87.38;100916.97;4464976;31;20075;-69
2021/08/19 05:05:57;;;;;;;4.93;4.72;;;;;;;16.47;87.96;100912.50;4446592;32;20165;-70
2021/08/19 05:08:22;;;;;;;4.75;4.55;;;;;;;16.48;86.91;100915.03;4448003;31;20055;-70
2021/08/19 05:10:47;;;;;;;5.00;4.80;;;;;;;16.53;87.02;100917.34;4448065;31;20151;-70
2021/08/19 05:13:13;;;;;;;4.80;4.60;;;;;;;16.54;87.35;100921.69;4467158;31;20133;-70
2021/08/19 05:15:38;;;;;;;4.90;4.70;;;;;;;16.53;86.63;100920.81;4463970;31;20068;-70
2021/08/19 05:18:04;;;;;;;4.85;4.65;;;;;;;16.54;87.22;100922.53;4447736;31;20595;-70
2021/08/19 05:20:29;;;;;;;4.80;4.60;;;;;;;16.55;86.29;100916.25;4463906;31;20075;-70
2021/08/19 05:22:54;;;;;;;4.93;4.72;;;;;;;16.57;86.13;100923.25;4440803;32;20060;-69
2021/08/19 05:25:20;;;;;;;5.10;4.85;;;;;;;16.60;86.29;100926.53;4429558;32;20895;-69
2021/08/19 05:27:45;;;;;;;5.00;4.80;;;;;;;16.61;86.08;100930.88;4447607;32;20164;-69
2021/08/19 05:30:11;;;;;;;4.70;4.50;;;;;;;16.61;86.04;100930.88;4432794;32;20080;-71
2021/08/19 05:32:36;;;;;;;4.90;4.70;;;;;;;16.60;86.53;100928.31;4446597;32;20079;-69
2021/08/19 05:35:03;;;;;;;4.60;4.40;;;;;;;16.61;85.91;100925.56;4444713;31;20933;-69
2021/08/19 05:37:28;;;;;;;5.00;4.80;;;;;;;16.64;85.59;100928.00;4443257;31;20099;-69
2021/08/19 05:39:54;;;;;;;5.10;4.80;;;;;;;16.63;86.39;100934.25;4452191;31;20067;-69
2021/08/19 05:42:19;;;;;;;5.10;4.90;;;;;;;16.66;85.52;100936.69;4460483;31;20066;-70
2021/08/19 05:44:45;;;;;;;5.10;4.90;;;;;;;16.67;86.09;100941.00;4454310;32;20101;-70
2021/08/19 05:47:10;;;;;;;5.37;5.07;;;;;;;16.52;86.01;100913.00;4449450;32;20111;-70
2021/08/19 05:49:40;;;;;;;4.90;4.70;;;;;;;16.68;85.32;100934.75;4449044;31;20180;-70
2021/08/19 05:52:06;;;;;;;4.82;4.62;;;;;;;16.71;85.78;100945.13;4432070;32;20137;-70
2021/08/19 05:54:31;;;;;;;5.20;4.75;;;;;;;16.70;85.43;100940.78;4433891;32;20079;-69
2021/08/19 05:56:56;;;;;;;5.10;4.90;;;;;;;16.67;85.75;100940.16;4434752;32;20068;-70
2021/08/19 05:59:22;;;;;;;7.07;5.50;;;;;;;16.52;86.41;100916.50;4434408;32;20071;-69
2021/08/19 06:01:47;;;;;;;5.10;4.90;;;;;;;16.71;85.56;100945.13;4447580;32;20738;-70
2021/08/19 06:04:12;;;;;;;5.40;5.00;;;;;;;16.73;85.17;100942.37;4440035;31;20071;-70
2021/08/19 06:06:38;;;;;;;5.37;4.85;;;;;;;16.71;85.72;100937.16;4461153;31;20825;-70
2021/08/19 06:09:03;;;;;;;5.18;4.78;;;;;;;16.77;85.45;100946.47;4464664;31;20067;-70
2021/08/19 06:11:28;;;;;;;5.53;5.22;;;;;;;16.72;85.38;100948.63;4461677;31;20071;-69
2021/08/19 06:13:54;;;;;;;5.20;4.90;;;;;;;16.78;85.54;100949.97;4452783;31;20086;-70
2021/08/19 06:16:19;;;;;;;5.20;5.00;;;;;;;16.80;85.62;100948.03;4454190;31;20070;-70
2021/08/19 06:18:45;;;;;;;4.90;4.70;;;;;;;16.83;85.52;100955.81;4467908;31;20099;-69
2021/08/19 06:21:10;;;;;;;4.87;4.68;;;;;;;16.84;85.06;100955.72;4442849;32;20072;-69
2021/08/19 06:23:35;;;;;;;4.90;4.70;;;;;;;16.87;85.11;100958.13;4448569;31;20474;-70
2021/08/19 06:26:01;;;;;;;5.12;4.93;;;;;;;15.91;85.88;100789.44;4448126;31;20607;-70
2021/08/19 06:28:26;;;;;;;4.72;4.53;;;;;;;16.96;85.41;100951.28;4444832;32;20064;-69
2021/08/19 06:30:54;;;;;;;5.50;5.20;;;;;;;17.06;84.48;100954.06;4427733;32;20408;-70
2021/08/19 06:33:20;;;;;;;5.10;4.80;;;;;;;17.07;85.13;100953.97;4442480;32;20702;-70
2021/08/19 06:35:45;;;;;;;5.22;4.95;;;;;;;17.18;84.04;100960.25;4429101;31;20083;-70
2021/08/19 06:38:11;;;;;;;5.68;5.37;;;;;;;17.22;84.48;100945.81;4446049;32;20064;-70
2021/08/19 06:40:36;;;;;;;5.00;4.80;;;;;;;17.25;83.36;100951.72;4443746;32;20134;-70
2021/08/19 06:43:01;;;;;;;4.70;4.50;;;;;;;17.30;83.15;100959.34;4429172;32;20079;-69
2021/08/19 06:45:27;;;;;;;5.35;5.15;;;;;;;17.35;83.40;100951.87;4436934;32;20071;-70
2021/08/19 06:47:52;;;;;;;5.30;5.10;;;;;;;17.32;82.48;100957.44;4429260;32;20115;-70
2021/08/19 06:50:17;;;;;;;5.22;4.93;;;;;;;17.42;82.20;100963.72;4459981;31;20086;-71
2021/08/19 06:52:44;;;;;;;5.12;4.93;;;;;;;16.49;82.63;100810.75;4458482;31;20067;-70
2021/08/19 06:55:09;;;;;;;5.12;4.87;;;;;;;17.36;82.11;100958.87;4456255;32;20120;-70
2021/08/19 06:57:35;;;;;;;5.72;5.43;;;;;;;17.45;82.31;100958.16;4425121;32;20060;-70
2021/08/19 07:00:00;;;;;;;5.07;4.87;;;;;;;17.23;82.67;100927.12;4430299;32;20529;-70
2021/08/19 07:02:25;;;;;;;7.22;6.78;;;;;;;17.51;81.69;100967.47;4438775;32;20098;-68
2021/08/19 07:04:51;;;;;;;5.07;4.87;;;;;;;17.58;82.08;100968.69;4426229;32;20082;-68
2021/08/19 07:07:16;;;;;;;5.45;5.15;;;;;;;17.62;80.91;100964.84;4446897;32;20079;-70
2021/08/19 07:09:42;;;;;;;5.35;5.15;;;;;;;17.59;81.35;100950.94;4453741;31;20103;-69
2021/08/19 07:12:07;;;;;;;5.50;5.20;;;;;;;17.34;81.04;100915.72;4457953;32;20151;-70
2021/08/19 07:14:32;;;;;;;5.45;5.05;;;;;;;17.67;81.98;100967.12;4448051;31;20098;-70
2021/08/19 07:16:58;;;;;;;5.37;5.18;;;;;;;17.66;81.68;100965.41;4458479;32;20573;-69
2021/08/19 07:19:23;;;;;;;5.30;5.00;;;;;;;17.67;81.24;100972.44;4444848;31;20086;-70
2021/08/19 07:21:48;;;;;;;5.47;5.18;;;;;;;17.65;81.08;100969.88;4444384;31;20063;-69
2021/08/19 07:24:14;;;;;;;5.53;5.25;;;;;;;17.53;81.42;100971.69;4461235;31;20070;-69
2021/08/19 07:26:39;;;;;;;5.78;5.47;;;;;;;17.50;81.19;100965.75;4447124;31;20095;-70
2021/08/19 07:29:05;;;;;;;5.05;4.85;;;;;;;17.59;81.45;100967.72;4460402;31;20090;-69
2021/08/19 07:31:32;;;;;;;5.90;5.53;;;;;;;17.66;82.01;100970.72;4459242;31;20079;-70
2021/08/19 07:33:57;;;;;;;4.70;4.50;;;;;;;17.67;81.27;100980.38;4455910;31;20146;-70
2021/08/19 07:36:22;;;;;;;6.25;5.95;;;;;;;17.68;81.83;100977.62;4459244;31;20551;-69
2021/08/19 07:38:48;;;;;;;5.45;5.12;;;;;;;17.70;80.48;100978.34;4446750;31;20067;-70
2021/08/19 07:41:13;;;;;;;5.95;5.65;;;;;;;17.77;79.92;100975.22;4457041;31;20071;-69
2021/08/19 07:43:38;;;;;;;5.60;5.30;;;;;;;17.76;80.07;100985.00;4458388;32;20086;-69
2021/08/19 07:46:04;;;;;;;5.40;5.18;;;;;;;17.80;79.92;100989.09;4433271;32;20530;-70
2021/08/19 07:48:29;;;;;;;6.05;5.72;;;;;;;17.86;79.92;100983.34;4447781;31;20136;-70
2021/08/19 07:50:56;;;;;;;5.85;5.45;;;;;;;17.89;80.21;100992.87;4456913;31;20134;-69
2021/08/19 07:53:21;;;;;;;5.60;5.30;;;;;;;17.97;80.04;100985.13;4468146;31;20076;-69
2021/08/19 07:55:46;;;;;;;5.35;5.12;;;;;;;18.09;78.95;100981.50;4461425;31;20067;-70
2021/08/19 07:58:12;;;;;;;5.70;5.40;;;;;;;18.12;79.28;100985.72;4469238;32;20091;-70
2021/08/19 08:00:37;;;;;;;5.62;5.32;;;;;;;18.10;78.53;100987.66;4431250;32;20319;-69
2021/08/19 08:03:03;;;;;;;5.75;5.47;;;;;;;17.93;78.20;100941.22;4435165;32;20090;-69
2021/08/19 08:05:30;;;;;;;5.70;5.30;;;;;;;18.28;78.26;100988.00;4433052;32;20080;-69
2021/08/19 08:08:02;;;;;;;5.50;5.20;;;;;;;18.20;78.42;100991.28;4431892;32;20144;-70
2021/08/19 08:10:30;;;;;;;5.80;5.45;;;;;;;18.13;78.04;100992.75;4434496;32;20278;-70
2021/08/19 08:12:55;;;;;;;5.25;5.05;;;;;;;18.09;78.59;100989.47;4439316;32;20275;-69
2021/08/19 08:15:21;;;;;;;5.85;5.45;;;;;;;17.96;78.43;100986.13;4441252;32;20500;-72
2021/08/19 08:17:46;;;;;;;5.70;5.40;;;;;;;17.90;78.59;100998.06;4445555;32;20076;-68
2021/08/19 08:20:13;;;;;;;6.25;5.95;;;;;;;17.80;78.91;100991.75;4462994;31;20402;-76
2021/08/19 08:22:41;;;;;;;5.55;5.25;;;;;;;17.80;79.37;100996.19;4447766;32;20581;-70
2021/08/19 08:25:06;;;;;;;5.12;4.93;;;;;;;17.83;79.24;100998.63;4446505;32;20915;-71
2021/08/19 08:27:32;;;;;;;6.43;5.97;;;;;;;17.62;79.10;100948.91;4446140;32;20063;-71
2021/08/19 08:29:58;;;;;;;5.50;5.20;;;;;;;17.99;77.61;101001.78;4436823;32;20082;-71
2021/08/19 08:32:23;;;;;;;5.43;5.18;;;;;;;18.09;78.41;100999.25;4444395;32;20432;-71
2021/08/19 08:34:48;;;;;;;5.65;5.37;;;;;;;18.15;77.65;100998.78;4427917;32;20095;-71
2021/08/19 08:37:14;;;;;;;7.30;6.97;;;;;;;16.70;76.40;100776.50;4447952;26;20983;-80
2021/08/19 08:39:40;;;;;;;5.60;5.30;;;;;;;18.01;76.95;101013.13;4422939;32;20083;-78
2021/08/19 08:42:06;;;;;;;5.80;5.47;;;;;;;18.21;76.98;100998.28;4425724;32;20244;-82
2021/08/19 08:44:32;;;;;;;5.90;5.60;;;;;;;17.82;76.14;100912.84;4427590;32;20095;-81
2021/08/19 08:46:57;;;;;;;5.50;5.20;;;;;;;17.66;75.78;100870.72;4428353;32;20759;-81
2021/08/19 08:49:23;;;;;;;5.25;5.05;;;;;;;17.57;76.15;100834.28;4435769;32;20088;-80
2021/08/19 08:51:52;;;;;;;5.53;5.15;;;;;;;18.72;74.85;101029.63;4422725;32;20506;-81
2021/08/19 08:54:17;;;;;;;5.32;5.10;;;;;;;18.24;74.83;100930.78;4436968;32;20579;-83
2021/08/19 08:56:43;;;;;;;5.68;5.37;;;;;;;18.02;75.09;100915.72;4441674;32;20076;-82
2021/08/19 08:59:08;;;;;;;5.72;5.43;;;;;;;18.43;74.95;100992.09;4441321;32;20078;-81
2021/08/19 09:01:34;;;;;;;5.90;5.60;;;;;;;18.05;75.42;100934.06;4431318;32;20137;-80
2021/08/19 09:03:59;;;;;;;5.78;5.47;;;;;;;15.52;74.53;100561.22;4435011;32;20620;-81
2021/08/19 09:06:35;;;;;;;5.62;5.43;;;;;;;18.72;73.33;100986.22;4440951;32;20083;-82
2021/08/19 09:09:01;;;;;;;5.43;5.22;;;;;;;18.56;72.09;100928.13;4426644;32;20086;-79
2021/08/19 09:11:28;;;;;;;5.95;5.65;;;;;;;18.37;71.37;100840.28;4425326;32;20052;-80
2021/08/19 09:13:53;;;;;;;5.53;5.22;;;;;;;18.76;70.01;100913.19;4424094;32;20068;-80
2021/08/19 09:16:19;;;;;;;5.40;5.20;;;;;;;19.74;69.19;101005.22;4419095;32;20079;-81
2021/08/19 09:18:44;;;;;;;5.60;5.30;;;;;;;19.73;68.06;101000.88;4423857;32;20168;-80
2021/08/19 09:21:17;;;;;;;5.65;5.35;;;;;;;19.42;66.26;100960.88;4433848;32;20562;-81
2021/08/19 09:23:42;;;;;;;5.75;5.35;;;;;;;19.59;67.25;101012.69;4450450;32;20104;-78
2021/08/19 09:26:07;;;;;;;5.72;5.43;;;;;;;18.87;67.61;100945.09;4414310;32;20178;-79
2021/08/19 09:28:33;;;;;;;6.03;5.72;;;;;;;19.31;67.91;101004.38;4429121;32;20076;-77
2021/08/19 09:31:08;;;;;;;5.80;5.50;;;;;;;15.67;68.00;100473.72;4420247;32;20673;-78
2021/08/19 09:33:39;;;;;;;5.43;5.12;;;;;;;18.89;68.00;101019.44;4438980;32;20080;-79
2021/08/19 09:36:08;;;;;;;5.20;5.00;;;;;;;18.86;68.03;101011.69;4416443;32;20083;-78
2021/08/19 09:38:39;;;;;;;5.60;5.30;;;;;;;19.12;67.98;101030.81;4442667;32;20087;-76
2021/08/19 09:41:11;;;;;;;5.90;5.60;;;;;;;19.15;68.39;101035.91;4425323;32;20084;-78
2021/08/19 09:43:47;;;;;;;6.00;5.70;;;;;;;19.02;67.96;101006.81;4442204;32;20632;-80
2021/08/19 09:46:14;;;;;;;5.95;5.65;;;;;;;18.82;68.05;101015.59;4452968;32;20117;-80
2021/08/19 09:48:40;;;;;;;5.28;5.07;;;;;;;19.03;68.59;101034.28;4438771;32;20114;-80
2021/08/19 09:51:20;;;;;;;5.72;5.43;;;;;;;18.80;68.34;100953.72;4445434;32;20120;-79
2021/08/19 09:53:50;;;;;;;5.57;5.28;;;;;;;19.52;68.21;101039.00;4438870;32;20080;-81
2021/08/19 09:56:29;;;;;;;5.55;5.25;;;;;;;18.63;66.62;100832.81;4446603;32;20076;-80
2021/08/19 09:59:15;;;;;;;5.70;5.40;;;;;;;20.08;66.10;101028.94;4434567;32;20146;-80
2021/08/19 10:01:41;;;;;;;5.70;5.40;;;;;;;19.30;66.02;100871.44;4450561;32;20082;-79
2021/08/19 10:04:06;;;;;;;5.68;5.37;;;;;;;19.92;65.18;100981.47;4449497;32;20064;-80
2021/08/19 10:06:31;;;;;;;5.70;5.40;;;;;;;19.95;66.30;100985.72;4441587;32;20593;-80
2021/08/19 10:08:57;;;;;;;5.50;5.30;;;;;;;19.20;66.84;100874.06;4433535;32;20145;-81
2021/08/19 10:11:22;;;;;;;5.57;5.30;;;;;;;19.97;66.73;101007.75;4428985;32;20949;-80
2021/08/19 10:13:48;;;;;;;5.62;5.32;;;;;;;19.58;65.90;101008.31;4435304;32;20471;-81
2021/08/19 10:16:14;;;;;;;5.40;5.20;;;;;;;19.23;66.30;100963.44;4455012;32;20080;-80
2021/08/19 10:18:39;;;;;;;5.90;5.60;;;;;;;19.36;67.95;100997.81;4456574;32;20190;-81
2021/08/19 10:21:08;;;;;;;5.20;5.00;;;;;;;18.77;67.78;100896.28;4443214;32;20072;-81
2021/08/19 10:23:33;;;;;;;5.20;5.00;;;;;;;18.89;67.99;100908.59;4445749;32;20209;-80
2021/08/19 10:26:03;;;;;;;5.47;5.18;;;;;;;16.46;68.22;100510.81;4430618;32;20067;-80
2021/08/19 10:28:32;;;;;;;5.40;5.20;;;;;;;19.46;67.65;101002.22;4443114;32;20143;-81
2021/08/19 10:31:00;;;;;;;5.50;5.30;;;;;;;17.85;68.30;100763.09;4428359;32;20076;-79
2021/08/19 10:33:38;;;;;;;5.47;5.20;;;;;;;19.33;68.54;101017.56;4443372;32;20321;-80
2021/08/19 10:36:09;;;;;;;5.50;5.20;;;;;;;19.53;68.42;101015.88;4458019;32;20079;-79
2021/08/19 10:38:35;;;;;;;5.47;5.28;;;;;;;18.97;67.64;100891.97;4469779;32;20103;-81
2021/08/19 10:41:00;;;;;;;5.60;5.30;;;;;;;19.80;66.82;101003.84;4426531;32;20076;-80
2021/08/19 10:43:30;;;;;;;5.25;5.05;;;;;;;20.00;66.84;101012.78;4448189;32;20083;-80
2021/08/19 10:46:09;;;;;;;5.80;5.50;;;;;;;19.70;66.04;100978.00;4472425;32;20079;-79
2021/08/19 10:48:46;;;;;;;5.07;4.87;;;;;;;18.37;65.93;100808.41;4448613;31;20080;-81
2021/08/19 10:51:13;;;;;;;5.40;5.20;;;;;;;18.94;66.70;100929.47;4459321;32;20087;-79
2021/08/19 10:53:41;;;;;;;5.65;5.22;;;;;;;19.11;67.03;100950.19;4466807;32;20079;-80
2021/08/19 10:56:06;;;;;;;5.53;5.22;;;;;;;19.05;66.78;100971.97;4454274;32;20186;-82
2021/08/19 10:58:37;;;;;;;5.35;5.05;;;;;;;19.29;67.71;101026.78;4445996;32;20179;-82
2021/08/19 11:01:22;;;;;;;5.30;5.10;;;;;;;19.34;68.39;101021.91;4443565;32;20622;-80
2021/08/19 11:03:49;;;;;;;5.40;5.20;;;;;;;19.57;68.88;101027.13;4458104;32;20145;-80
2021/08/19 11:06:19;;;;;;;6.00;5.70;;;;;;;18.93;67.34;100911.84;4442880;31;20095;-78
2021/08/19 11:08:57;;;;;;;5.50;5.30;;;;;;;19.70;67.31;101004.62;4446321;32;20079;-80
2021/08/19 11:11:37;;;;;;;5.47;5.18;;;;;;;20.12;67.42;101022.38;4459444;32;20486;-81
2021/08/19 11:14:06;;;;;;;5.20;5.00;;;;;;;20.19;66.90;101018.19;4450872;32;20116;-80
2021/08/19 11:16:31;;;;;;;5.40;5.20;;;;;;;19.74;66.79;100930.66;4490427;31;20064;-81
2021/08/19 11:19:20;;;;;;;5.60;5.30;;;;;;;18.07;67.01;100677.19;4462132;32;20132;-81
2021/08/19 11:22:00;;;;;;;5.30;5.00;;;;;;;19.94;67.82;100995.50;4466609;31;20071;-80